createdAt,value
2023-02-09T00:01:25.811Z,16.77
2023-02-09T00:03:54.570Z,13.30
2023-02-09T00:06:24.170Z,15.53
2023-02-09T00:08:52.114Z,13.63
2023-02-09T00:11:42.673Z,13.37
2023-02-09T00:14:11.094Z,14.43
2023-02-09T00:16:38.956Z,15.00
2023-02-09T00:19:06.986Z,16.27
2023-02-09T00:21:34.825Z,13.30
2023-02-09T00:24:02.673Z,12.80
2023-02-09T00:26:30.456Z,13.43
2023-02-09T00:28:58.331Z,13.47
2023-02-09T00:31:28.386Z,12.50
2023-02-09T00:33:56.368Z,12.60
2023-02-09T00:36:24.197Z,12.90
2023-02-09T00:38:52.885Z,13.07
2023-02-09T00:41:45.084Z,13.17
2023-02-09T00:44:13.653Z,14.10
2023-02-09T00:46:43.556Z,10.47
2023-02-09T00:49:11.432Z,11.53
2023-02-09T00:51:40.591Z,12.40
2023-02-09T00:54:08.618Z,13.10
2023-02-09T00:56:36.467Z,12.20
2023-02-09T00:59:04.330Z,12.47
2023-02-09T01:01:32.204Z,10.57
2023-02-09T01:04:02.571Z,11.43
2023-02-09T01:06:31.395Z,12.20
2023-02-09T01:08:59.770Z,13.27
2023-02-09T01:11:32.110Z,12.93
2023-02-09T01:14:02.395Z,12.70
2023-02-09T01:16:31.640Z,10.77
2023-02-09T01:19:02.075Z,14.13
2023-02-09T01:21:31.507Z,12.50
2023-02-09T01:23:59.384Z,12.60
2023-02-09T01:26:27.238Z,11.87
2023-02-09T01:28:55.617Z,12.70
2023-02-09T01:31:26.115Z,10.73
2023-02-09T01:33:55.230Z,14.90
2023-02-09T01:36:24.711Z,12.03
2023-02-09T01:38:52.671Z,11.37
2023-02-09T01:41:20.522Z,13.33
2023-02-09T01:43:54.741Z,12.23
2023-02-09T01:46:23.353Z,14.10
2023-02-09T01:48:57.527Z,14.97
2023-02-09T01:51:27.392Z,15.40
2023-02-09T01:53:56.220Z,15.67
2023-02-09T01:56:30.912Z,16.03
2023-02-09T01:58:59.725Z,15.40
2023-02-09T02:01:27.956Z,17.60
2023-02-09T02:03:56.583Z,16.90
2023-02-09T02:06:28.115Z,16.03
2023-02-09T02:08:59.981Z,14.50
2023-02-09T02:11:29.805Z,13.43
2023-02-09T02:13:57.960Z,17.17
2023-02-09T02:16:43.102Z,14.33
2023-02-09T02:20:12.190Z,16.30
2023-02-09T02:23:01.220Z,14.57
2023-02-09T02:26:32.696Z,14.40
2023-02-09T02:29:17.366Z,13.50
2023-02-09T02:32:11.377Z,13.70
2023-02-09T02:34:46.560Z,15.33
2023-02-09T02:37:28.619Z,13.67
2023-02-09T02:40:04.705Z,15.33
2023-02-09T02:42:54.473Z,15.30
2023-02-09T02:45:38.920Z,13.53
2023-02-09T02:48:19.665Z,15.57
2023-02-09T02:50:53.186Z,15.07
2023-02-09T02:53:26.676Z,15.40
2023-02-09T02:55:57.597Z,14.70
2023-02-09T02:58:27.241Z,15.73
2023-02-09T03:00:58.571Z,13.50
2023-02-09T03:03:32.694Z,13.67
2023-02-09T03:06:04.082Z,13.83
2023-02-09T03:08:31.885Z,14.57
2023-02-09T03:10:59.833Z,15.33
2023-02-09T03:13:43.611Z,13.00
2023-02-09T03:16:21.596Z,13.73
2023-02-09T03:19:04.951Z,15.27
2023-02-09T03:21:47.074Z,13.63
2023-02-09T03:24:24.089Z,12.80
2023-02-09T03:27:04.148Z,15.40
2023-02-09T03:29:34.872Z,13.77
2023-02-09T03:32:02.673Z,11.13
2023-02-09T03:34:31.876Z,13.37
2023-02-09T03:37:00.117Z,12.13
2023-02-09T03:39:27.928Z,13.70
2023-02-09T03:41:55.723Z,12.97
2023-02-09T03:44:29.318Z,13.83
2023-02-09T03:46:59.894Z,13.90
2023-02-09T03:49:30.204Z,14.20
2023-02-09T03:52:00.613Z,13.77
2023-02-09T03:54:29.192Z,13.27
2023-02-09T03:56:57.026Z,13.87
2023-02-09T03:59:25.887Z,14.53
2023-02-09T04:01:56.139Z,16.70
2023-02-09T04:04:24.492Z,12.13
2023-02-09T04:06:52.672Z,14.37
2023-02-09T04:09:23.367Z,11.83
2023-02-09T04:11:51.418Z,12.93
2023-02-09T04:14:19.595Z,13.20
2023-02-09T04:16:47.428Z,15.53
2023-02-09T04:19:15.505Z,13.63
2023-02-09T04:21:43.643Z,15.17
2023-02-09T04:24:11.537Z,14.37
2023-02-09T04:26:42.857Z,14.77
2023-02-09T04:29:10.663Z,12.97
2023-02-09T04:31:39.371Z,16.23
2023-02-09T04:34:07.178Z,15.00
2023-02-09T04:36:37.429Z,14.40
2023-02-09T04:39:05.348Z,14.13
2023-02-09T04:41:33.098Z,11.50
2023-02-09T04:44:02.261Z,12.33
2023-02-09T04:46:30.136Z,12.07
2023-02-09T04:48:57.870Z,11.90
2023-02-09T04:51:25.625Z,12.13
2023-02-09T04:53:53.346Z,14.67
2023-02-09T04:56:21.048Z,14.13
2023-02-09T04:59:06.320Z,12.33
2023-02-09T05:01:35.463Z,14.40
2023-02-09T05:04:03.229Z,14.23
2023-02-09T05:06:30.986Z,15.27
2023-02-09T05:08:58.720Z,17.07
2023-02-09T05:11:26.591Z,14.07
2023-02-09T05:13:54.383Z,14.60
2023-02-09T05:16:22.156Z,15.63
2023-02-09T05:18:51.346Z,19.07
2023-02-09T05:21:19.081Z,19.53
2023-02-09T05:23:48.250Z,19.70
2023-02-09T05:26:15.985Z,17.60
2023-02-09T05:28:43.736Z,20.27
2023-02-09T05:31:14.627Z,24.90
2023-02-09T05:33:42.500Z,22.33
2023-02-09T05:36:12.850Z,21.47
2023-02-09T05:38:41.108Z,19.57
2023-02-09T05:41:11.021Z,18.50
2023-02-09T05:43:39.206Z,20.80
2023-02-09T05:46:08.484Z,16.27
2023-02-09T05:48:36.420Z,20.70
2023-02-09T05:51:04.180Z,15.73
2023-02-09T05:53:33.349Z,16.13
2023-02-09T05:56:01.095Z,19.53
2023-02-09T05:58:31.266Z,16.00
2023-02-09T06:00:58.977Z,18.57
2023-02-09T06:03:26.735Z,20.17
2023-02-09T06:05:54.512Z,18.87
2023-02-09T06:08:22.284Z,15.73
2023-02-09T06:10:51.367Z,14.83
2023-02-09T06:13:20.197Z,14.50
2023-02-09T06:15:50.348Z,14.47
2023-02-09T06:18:18.179Z,13.90
2023-02-09T06:20:46.255Z,13.83
2023-02-09T06:23:15.581Z,16.63
2023-02-09T06:25:43.342Z,14.50
2023-02-09T06:28:12.470Z,16.43
2023-02-09T06:30:40.226Z,16.07
2023-02-09T06:33:07.951Z,14.37
2023-02-09T06:35:35.682Z,17.93
2023-02-09T06:38:03.420Z,13.13
2023-02-09T06:40:31.174Z,17.40
2023-02-09T06:42:58.864Z,17.23
2023-02-09T06:45:27.991Z,17.60
2023-02-09T06:47:57.445Z,21.73
2023-02-09T06:50:25.215Z,14.97
2023-02-09T06:52:54.457Z,18.03
2023-02-09T06:55:22.186Z,17.57
2023-02-09T06:57:49.960Z,15.07
2023-02-09T07:00:18.804Z,20.07
2023-02-09T07:02:48.286Z,15.90
2023-02-09T07:05:17.763Z,14.33
2023-02-09T07:07:46.344Z,19.97
2023-02-09T07:10:16.157Z,12.67
2023-02-09T07:12:44.398Z,16.53
2023-02-09T07:15:13.561Z,14.53
2023-02-09T07:17:42.228Z,19.07
2023-02-09T07:20:13.593Z,13.87
2023-02-09T07:22:41.405Z,16.23
2023-02-09T07:25:09.446Z,13.77
2023-02-09T07:27:37.172Z,18.13
2023-02-09T07:30:05.480Z,16.13
2023-02-09T07:32:33.983Z,16.00
2023-02-09T07:35:02.605Z,20.37
2023-02-09T07:37:31.729Z,19.03
2023-02-09T07:40:00.248Z,20.93
2023-02-09T07:42:28.021Z,19.90
2023-02-09T07:45:02.000Z,22.07
2023-02-09T07:47:29.790Z,22.37
2023-02-09T07:49:57.502Z,21.37
2023-02-09T07:52:25.291Z,22.53
2023-02-09T07:54:56.711Z,23.87
2023-02-09T07:57:24.474Z,21.87
2023-02-09T07:59:54.304Z,20.00
2023-02-09T08:02:29.705Z,20.97
2023-02-09T08:05:00.610Z,21.10
2023-02-09T08:07:28.883Z,19.40
2023-02-09T08:09:58.180Z,20.60
2023-02-09T08:12:43.095Z,22.43
2023-02-09T08:15:11.712Z,23.33
2023-02-09T08:17:41.584Z,47.00
2023-02-09T08:20:13.307Z,35.40
2023-02-09T08:22:46.431Z,29.10
2023-02-09T08:25:21.846Z,28.40
2023-02-09T08:27:50.184Z,30.17
2023-02-09T08:30:19.676Z,27.67
2023-02-09T08:32:49.527Z,30.37
2023-02-09T08:35:17.656Z,24.53
2023-02-09T08:37:45.416Z,24.80
2023-02-09T08:40:15.774Z,24.30
2023-02-09T08:42:43.492Z,27.77
2023-02-09T08:45:13.906Z,24.30
2023-02-09T08:47:41.653Z,27.50
2023-02-09T08:50:10.355Z,27.73
2023-02-09T08:52:40.479Z,26.37
2023-02-09T08:55:08.698Z,27.43
2023-02-09T08:57:44.051Z,27.40
2023-02-09T09:00:13.859Z,28.20
2023-02-09T09:02:41.644Z,29.40
2023-02-09T09:05:09.731Z,25.83
2023-02-09T09:07:37.461Z,23.53
2023-02-09T09:10:05.709Z,25.90
2023-02-09T09:12:33.557Z,26.73
2023-02-09T09:15:02.649Z,27.13
2023-02-09T09:17:32.413Z,29.27
2023-02-09T09:20:00.154Z,31.30
2023-02-09T09:22:28.010Z,30.33
2023-02-09T09:24:55.760Z,28.73
2023-02-09T09:27:26.044Z,30.43
2023-02-09T09:29:54.797Z,28.77
2023-02-09T09:32:25.232Z,33.93
2023-02-09T09:34:54.492Z,29.10
2023-02-09T09:37:22.971Z,31.10
2023-02-09T09:39:51.007Z,31.70
2023-02-09T09:42:25.700Z,31.27
2023-02-09T09:44:54.592Z,33.57
2023-02-09T09:47:37.249Z,32.97
2023-02-09T09:50:08.679Z,33.70
2023-02-09T09:52:43.788Z,31.27
2023-02-09T09:55:23.272Z,29.43
2023-02-09T09:57:53.642Z,31.67
2023-02-09T10:00:24.485Z,30.30
2023-02-09T10:02:53.846Z,27.97
2023-02-09T10:05:26.569Z,33.70
2023-02-09T10:08:01.011Z,33.20
2023-02-09T10:10:39.858Z,37.70
2023-02-09T10:13:14.481Z,34.23
2023-02-09T10:15:42.451Z,36.00
2023-02-09T10:18:16.960Z,32.77
2023-02-09T10:20:47.777Z,32.33
2023-02-09T10:23:22.221Z,32.60
2023-02-09T10:25:55.622Z,32.40
2023-02-09T10:28:25.932Z,31.50
2023-02-09T10:30:56.189Z,32.33
2023-02-09T10:33:26.612Z,33.17
2023-02-09T10:35:57.734Z,32.83
2023-02-09T10:38:33.220Z,33.00
2023-02-09T10:41:02.335Z,43.40
2023-02-09T10:43:32.661Z,32.90
2023-02-09T10:46:04.022Z,84.40
2023-02-09T10:48:41.246Z,54.00
2023-02-09T10:51:15.218Z,43.80
2023-02-09T10:53:59.716Z,33.53
2023-02-09T10:56:34.276Z,34.97
2023-02-09T10:59:05.112Z,37.43
2023-02-09T11:01:35.615Z,39.63
2023-02-09T11:04:07.168Z,37.63
2023-02-09T11:06:44.904Z,36.17
2023-02-09T11:09:17.372Z,35.93
2023-02-09T11:11:46.441Z,31.67
2023-02-09T11:14:16.736Z,34.37
2023-02-09T11:16:55.204Z,47.20
2023-02-09T11:19:36.529Z,33.07
2023-02-09T11:22:12.340Z,39.10
2023-02-09T11:24:57.948Z,39.17
2023-02-09T11:27:45.439Z,32.77
2023-02-09T11:30:30.629Z,35.30
2023-02-09T11:33:04.131Z,34.87
2023-02-09T11:35:46.350Z,35.83
2023-02-09T11:38:19.190Z,34.07
2023-02-09T11:40:54.722Z,38.57
2023-02-09T11:43:28.398Z,34.17
2023-02-09T11:46:01.814Z,34.53
2023-02-09T11:48:32.645Z,35.73
2023-02-09T11:51:07.219Z,37.43
2023-02-09T11:53:43.615Z,43.13
2023-02-09T11:56:14.137Z,36.37
2023-02-09T11:58:47.988Z,37.43
2023-02-09T12:01:28.883Z,44.60
2023-02-09T12:04:05.254Z,33.10
2023-02-09T12:06:39.833Z,31.67
2023-02-09T12:09:37.795Z,35.40
2023-02-09T12:12:19.234Z,40.23
2023-02-09T12:15:08.245Z,39.53
2023-02-09T12:17:44.700Z,31.57
2023-02-09T12:20:24.719Z,52.87
2023-02-09T12:23:16.791Z,36.70
2023-02-09T12:25:57.491Z,39.37
2023-02-09T12:28:47.738Z,43.10
2023-02-09T12:31:53.405Z,32.97
2023-02-09T12:34:29.842Z,37.17
2023-02-09T12:37:28.120Z,33.10
2023-02-09T12:40:31.869Z,32.97
2023-02-09T12:43:29.066Z,29.83
2023-02-09T12:46:19.981Z,31.53
2023-02-09T12:49:04.206Z,32.33
2023-02-09T12:51:48.469Z,32.00
2023-02-09T12:54:31.999Z,34.87
2023-02-09T12:57:33.083Z,37.97
2023-02-09T13:00:43.095Z,33.60
2023-02-09T13:03:19.084Z,29.67
2023-02-09T13:05:48.807Z,36.73
2023-02-09T13:08:46.454Z,32.63
2023-02-09T13:11:30.302Z,30.47
2023-02-09T13:14:03.151Z,29.90
2023-02-09T13:17:03.276Z,29.90
2023-02-09T13:20:05.373Z,30.70
2023-02-09T13:22:48.149Z,30.57
2023-02-09T13:25:24.187Z,29.17
2023-02-09T13:27:53.080Z,28.97
2023-02-09T13:30:33.263Z,27.30
2023-02-09T13:33:25.270Z,32.60
2023-02-09T13:36:08.918Z,29.67
2023-02-09T13:38:42.428Z,28.87
2023-02-09T13:41:26.318Z,28.87
2023-02-09T13:43:54.093Z,28.00
2023-02-09T13:46:25.894Z,27.57
2023-02-09T13:48:58.776Z,29.87
2023-02-09T13:51:26.569Z,27.87
2023-02-09T13:53:58.354Z,29.73
2023-02-09T13:56:27.054Z,29.13
2023-02-09T13:58:56.407Z,27.83
2023-02-09T14:01:28.498Z,26.83
2023-02-09T14:04:03.332Z,30.80
2023-02-09T14:06:39.231Z,29.50
2023-02-09T14:09:14.315Z,30.87
2023-02-09T14:11:47.274Z,28.57
2023-02-09T14:14:21.057Z,27.60
2023-02-09T14:16:53.758Z,27.40
2023-02-09T14:19:28.523Z,27.70
2023-02-09T14:21:56.404Z,28.97
2023-02-09T14:24:24.938Z,31.87
2023-02-09T14:26:55.972Z,27.67
2023-02-09T14:29:27.423Z,27.07
2023-02-09T14:31:57.162Z,26.27
2023-02-09T14:34:33.176Z,27.87
2023-02-09T14:37:03.424Z,28.03
2023-02-09T14:39:32.113Z,27.10
2023-02-09T14:42:03.627Z,29.50
2023-02-09T14:44:31.904Z,25.37
2023-02-09T14:47:01.272Z,24.27
2023-02-09T14:49:30.548Z,24.63
2023-02-09T14:52:03.955Z,26.07
2023-02-09T14:54:33.890Z,27.13
2023-02-09T14:57:03.756Z,28.93
2023-02-09T14:59:32.299Z,30.57
2023-02-09T15:02:00.300Z,26.20
2023-02-09T15:04:28.302Z,27.27
2023-02-09T15:07:04.389Z,25.37
2023-02-09T15:09:36.551Z,26.87
2023-02-09T15:12:08.412Z,27.00
2023-02-09T15:14:42.207Z,28.60
2023-02-09T15:17:16.606Z,27.10
2023-02-09T15:19:45.266Z,29.53
2023-02-09T15:22:16.386Z,28.23
2023-02-09T15:24:46.189Z,23.20
2023-02-09T15:27:26.271Z,29.63
2023-02-09T15:29:56.947Z,27.03
2023-02-09T15:32:26.714Z,24.70
2023-02-09T15:34:55.327Z,27.10
2023-02-09T15:37:26.526Z,28.07
2023-02-09T15:39:57.036Z,29.03
2023-02-09T15:42:42.101Z,28.57
2023-02-09T15:45:36.442Z,25.47
2023-02-09T15:48:05.160Z,26.43
2023-02-09T15:50:34.843Z,26.10
2023-02-09T15:53:06.715Z,26.80
2023-02-09T15:55:36.916Z,26.43
2023-02-09T15:58:05.899Z,25.47
2023-02-09T16:00:33.671Z,27.50
2023-02-09T16:03:02.422Z,23.23
2023-02-09T16:05:31.138Z,25.93
2023-02-09T16:08:00.635Z,23.70
2023-02-09T16:10:31.063Z,23.67
2023-02-09T16:12:58.928Z,25.43
2023-02-09T16:15:27.673Z,22.17
2023-02-09T16:17:55.398Z,24.13
2023-02-09T16:20:26.505Z,24.23
2023-02-09T16:22:57.682Z,26.97
2023-02-09T16:25:26.962Z,26.87
2023-02-09T16:27:57.441Z,26.07
2023-02-09T16:30:27.350Z,26.80
2023-02-09T16:32:55.854Z,26.03
2023-02-09T16:35:25.336Z,28.00
2023-02-09T16:37:55.988Z,28.90
2023-02-09T16:40:27.102Z,28.53
2023-02-09T16:42:58.026Z,29.13
2023-02-09T16:45:27.028Z,28.33
2023-02-09T16:47:59.106Z,29.63
2023-02-09T16:50:32.819Z,30.93
2023-02-09T16:53:03.174Z,29.97
2023-02-09T16:55:33.042Z,30.37
2023-02-09T16:58:04.714Z,27.50
2023-02-09T17:00:34.931Z,29.33
2023-02-09T17:03:09.362Z,28.93
2023-02-09T17:05:38.000Z,25.10
2023-02-09T17:08:08.803Z,26.67
2023-02-09T17:10:36.991Z,33.50
2023-02-09T17:13:06.122Z,30.13
2023-02-09T17:15:40.583Z,27.47
2023-02-09T17:18:10.494Z,30.03
2023-02-09T17:20:42.056Z,26.53
2023-02-09T17:23:14.320Z,27.77
2023-02-09T17:25:42.079Z,30.47
2023-02-09T17:28:11.506Z,26.00
2023-02-09T17:30:39.953Z,28.00
2023-02-09T17:33:13.404Z,28.73
2023-02-09T17:38:31.335Z,31.80
2023-02-09T17:41:01.016Z,32.80
2023-02-09T17:43:30.111Z,29.10
2023-02-09T17:45:58.154Z,31.10
2023-02-09T17:48:25.922Z,29.70
2023-02-09T17:50:57.956Z,29.13
2023-02-09T17:53:27.803Z,28.10
2023-02-09T17:55:56.346Z,29.70
2023-02-09T17:58:24.390Z,30.23
2023-02-09T18:00:55.733Z,30.83
2023-02-09T18:03:25.926Z,32.10
2023-02-09T18:05:58.280Z,44.57
2023-02-09T18:08:27.168Z,41.23
2023-02-09T18:10:56.936Z,36.13
2023-02-09T18:13:26.934Z,34.87
2023-02-09T18:15:56.219Z,34.30
2023-02-09T18:18:24.476Z,31.80
2023-02-09T18:20:52.555Z,36.40
2023-02-09T18:23:20.311Z,33.07
2023-02-09T18:25:49.736Z,34.20
2023-02-09T18:28:17.673Z,35.37
2023-02-09T18:30:46.395Z,35.07
2023-02-09T18:33:16.601Z,34.00
2023-02-09T18:35:45.612Z,33.87
2023-02-09T18:38:15.372Z,32.67
2023-02-09T18:40:43.128Z,33.60
2023-02-09T18:43:14.516Z,37.53
2023-02-09T18:45:42.284Z,33.13
2023-02-09T18:48:11.620Z,33.57
2023-02-09T18:50:40.698Z,34.30
2023-02-09T18:53:08.479Z,35.90
2023-02-09T18:55:36.413Z,42.33
2023-02-09T18:58:09.178Z,40.20
2023-02-09T19:00:37.104Z,37.53
2023-02-09T19:03:05.327Z,44.07
2023-02-09T19:05:34.470Z,39.90
2023-02-09T19:08:03.661Z,37.17
2023-02-09T19:10:33.074Z,39.23
2023-02-09T19:13:02.414Z,39.10
2023-02-09T19:15:31.490Z,36.00
2023-02-09T19:17:59.249Z,37.80
2023-02-09T19:20:28.598Z,40.93
2023-02-09T19:22:57.123Z,39.93
2023-02-09T19:25:28.568Z,43.07
2023-02-09T19:27:56.391Z,40.67
2023-02-09T19:30:26.384Z,45.37
2023-02-09T19:32:55.146Z,55.67
2023-02-09T19:35:23.527Z,46.03
2023-02-09T19:37:52.502Z,47.20
2023-02-09T19:40:27.956Z,42.40
2023-02-09T19:42:58.043Z,45.17
2023-02-09T19:45:25.777Z,41.37
2023-02-09T19:47:53.538Z,40.87
2023-02-09T19:50:21.296Z,42.70
2023-02-09T19:52:50.296Z,45.13
2023-02-09T19:55:18.105Z,42.07
2023-02-09T19:57:45.855Z,45.27
2023-02-09T20:00:18.408Z,41.03
2023-02-09T20:02:46.498Z,37.53
2023-02-09T20:05:14.517Z,38.90
2023-02-09T20:07:42.371Z,43.03
2023-02-09T20:10:10.542Z,42.93
2023-02-09T20:12:38.297Z,43.17
2023-02-09T20:15:06.936Z,47.10
2023-02-09T20:17:36.142Z,40.30
2023-02-09T20:20:04.448Z,41.57
2023-02-09T20:22:32.282Z,41.50
2023-02-09T20:25:00.135Z,40.60
2023-02-09T20:27:27.875Z,38.40
2023-02-09T20:30:01.120Z,39.03
2023-02-09T20:32:29.084Z,38.33
2023-02-09T20:34:58.234Z,38.90
2023-02-09T20:37:25.990Z,40.50
2023-02-09T20:39:53.703Z,40.27
2023-02-09T20:42:38.710Z,37.83
2023-02-09T20:45:21.113Z,38.47
2023-02-09T20:47:48.843Z,40.83
2023-02-09T20:50:19.938Z,38.10
2023-02-09T20:52:47.690Z,37.20
2023-02-09T20:55:16.472Z,37.87
2023-02-09T20:57:44.314Z,37.53
2023-02-09T21:00:12.953Z,38.00
2023-02-09T21:02:40.703Z,35.60
2023-02-09T21:05:09.013Z,38.87
2023-02-09T21:07:38.750Z,38.43
2023-02-09T21:10:07.080Z,36.83
2023-02-09T21:12:35.066Z,41.23
2023-02-09T21:15:02.877Z,39.60
2023-02-09T21:17:30.837Z,41.60
2023-02-09T21:19:58.619Z,43.93
2023-02-09T21:22:26.641Z,44.27
2023-02-09T21:24:55.764Z,44.57
2023-02-09T21:27:25.974Z,50.30
2023-02-09T21:29:53.723Z,49.80
2023-02-09T21:32:21.551Z,51.10
2023-02-09T21:34:49.386Z,48.77
2023-02-09T21:37:18.680Z,51.90
2023-02-09T21:39:46.610Z,43.70
2023-02-09T21:42:28.582Z,43.63
2023-02-09T21:44:56.692Z,41.73
2023-02-09T21:47:26.386Z,41.47
2023-02-09T21:49:54.228Z,47.90
2023-02-09T21:52:22.072Z,42.27
2023-02-09T21:54:49.937Z,37.47
2023-02-09T21:57:19.347Z,41.47
2023-02-09T21:59:47.091Z,44.63
2023-02-09T22:02:16.688Z,39.27
2023-02-09T22:04:44.894Z,41.53
2023-02-09T22:07:13.600Z,40.77
2023-02-09T22:09:41.596Z,39.90
2023-02-09T22:12:09.812Z,45.63
2023-02-09T22:14:41.459Z,43.73
2023-02-09T22:17:09.207Z,45.50
2023-02-09T22:19:37.566Z,42.00
2023-02-09T22:22:05.860Z,39.70
2023-02-09T22:24:34.811Z,45.83
2023-02-09T22:27:02.783Z,42.97
2023-02-09T22:29:33.173Z,41.80
2023-02-09T22:32:02.314Z,41.23
2023-02-09T22:34:30.107Z,40.93
2023-02-09T22:36:57.809Z,41.13
2023-02-09T22:39:25.525Z,40.70
2023-02-09T22:41:57.968Z,43.30
2023-02-09T22:44:27.753Z,37.03
2023-02-09T22:46:55.490Z,40.73
2023-02-09T22:49:24.592Z,40.20
2023-02-09T22:51:52.305Z,42.73
2023-02-09T22:54:21.095Z,43.57
2023-02-09T22:56:49.030Z,39.23
2023-02-09T22:59:17.033Z,42.63
2023-02-09T23:01:45.742Z,42.77
2023-02-09T23:04:13.757Z,44.90
2023-02-09T23:06:42.889Z,38.43
2023-02-09T23:09:13.390Z,38.30
2023-02-09T23:11:41.887Z,35.13
2023-02-09T23:14:11.334Z,38.80
2023-02-09T23:16:40.560Z,39.90
2023-02-09T23:19:10.970Z,38.10
2023-02-09T23:21:40.392Z,40.30
2023-02-09T23:24:10.489Z,38.33
2023-02-09T23:26:38.843Z,38.33
2023-02-09T23:29:08.905Z,40.00
2023-02-09T23:31:37.205Z,43.77
2023-02-09T23:34:05.441Z,38.43
2023-02-09T23:36:34.940Z,39.80
2023-02-09T23:39:04.960Z,41.33
2023-02-09T23:41:34.780Z,40.73
2023-02-09T23:44:04.812Z,40.33
2023-02-09T23:46:32.631Z,43.57
2023-02-09T23:49:00.439Z,38.80
2023-02-09T23:51:30.194Z,42.23
2023-02-09T23:53:59.044Z,38.23
2023-02-09T23:56:36.630Z,37.47
2023-02-09T23:59:07.661Z,42.33
